Time;durP1;ratioP1;P1;durP2;ratioP2;P2;SDS_P1;SDS_P2;PMS_P1;PMS_P2;Temp;Humidity;BMP_temperature;BMP_pressure;BME280_temperature;BME280_humidity;BME280_pressure;Samples;Min_cycle;Max_cycle;Signal;HPM_P1;HPM_P2
2023/03/23 00:01:30;;;;;;;38.38;25.25;;;9.00;99.90;;;;;;4974232;28;20102;-75
2023/03/23 00:03:57;;;;;;;44.67;27.48;;;9.00;99.90;;;;;;4974308;28;20034;-75
2023/03/23 00:06:26;;;;;;;38.40;24.95;;;9.00;99.90;;;;;;4970800;28;20023;-74
2023/03/23 00:08:59;;;;;;;43.25;28.38;;;9.00;99.90;;;;;;4970017;28;20046;-76
2023/03/23 00:11:30;;;;;;;41.83;26.85;;;9.00;99.90;;;;;;4972694;28;20027;-75
2023/03/23 00:14:00;;;;;;;39.72;25.05;;;9.00;99.90;;;;;;4972020;28;20495;-75
2023/03/23 00:16:31;;;;;;;40.67;26.23;;;8.90;99.90;;;;;;4966500;28;20429;-75
2023/03/23 00:19:02;;;;;;;45.25;24.80;;;8.90;99.90;;;;;;4973322;28;20034;-75
2023/03/23 00:21:34;;;;;;;33.58;23.63;;;8.90;99.90;;;;;;4965709;28;20042;-74
2023/03/23 00:24:12;;;;;;;41.47;26.50;;;8.90;99.90;;;;;;4968111;28;20046;-75
2023/03/23 00:26:39;;;;;;;40.83;25.25;;;8.80;99.90;;;;;;4967271;28;20022;-75
2023/03/23 00:29:13;;;;;;;39.72;27.13;;;8.80;99.90;;;;;;4967898;28;20034;-76
2023/03/23 00:31:40;;;;;;;44.70;29.08;;;8.80;99.90;;;;;;4965323;28;20112;-73
2023/03/23 00:34:06;;;;;;;45.95;28.80;;;8.80;99.90;;;;;;4971852;28;20037;-72
2023/03/23 00:36:35;;;;;;;37.70;25.40;;;8.70;99.90;;;;;;4966349;28;20027;-76
2023/03/23 00:39:03;;;;;;;43.25;26.30;;;8.70;99.90;;;;;;4973788;28;20574;-74
2023/03/23 00:41:30;;;;;;;40.53;24.15;;;8.60;99.90;;;;;;4973559;28;20109;-75
2023/03/23 00:44:00;;;;;;;37.95;24.50;;;8.60;99.90;;;;;;4973626;28;20042;-75
2023/03/23 00:46:27;;;;;;;39.63;27.17;;;8.50;99.90;;;;;;4973745;28;20110;-73
2023/03/23 00:48:56;;;;;;;30.90;22.15;;;8.40;99.90;;;;;;4973766;28;20026;-77
2023/03/23 00:51:23;;;;;;;34.15;23.50;;;8.40;99.90;;;;;;4973718;28;20085;-74
2023/03/23 00:53:50;;;;;;;37.42;23.38;;;8.40;99.90;;;;;;4971927;28;20058;-76
2023/03/23 00:56:16;;;;;;;24.85;15.80;;;8.40;99.90;;;;;;4944238;28;20043;-73
2023/03/23 00:58:42;;;;;;;30.33;16.77;;;8.40;99.90;;;;;;4969757;28;20033;-75
2023/03/23 01:01:08;;;;;;;27.17;16.00;;;8.40;99.90;;;;;;4943405;28;20131;-73
2023/03/23 01:03:34;;;;;;;32.53;16.85;;;8.40;99.90;;;;;;4972122;28;20074;-75
2023/03/23 01:06:12;;;;;;;24.45;15.30;;;8.40;99.90;;;;;;4955999;28;20385;-75
2023/03/23 01:08:45;;;;;;;26.83;15.98;;;8.30;99.90;;;;;;4967962;28;20086;-75
2023/03/23 01:11:14;;;;;;;25.52;15.55;;;8.40;99.90;;;;;;4934688;28;20487;-76
2023/03/23 01:13:43;;;;;;;28.75;15.27;;;8.40;99.90;;;;;;4973295;28;20490;-74
2023/03/23 01:16:10;;;;;;;25.08;16.17;;;8.40;99.90;;;;;;4972754;28;20359;-75
2023/03/23 01:18:37;;;;;;;25.80;15.35;;;8.30;99.90;;;;;;4973111;28;20053;-72
2023/03/23 01:21:10;;;;;;;27.55;16.27;;;8.20;99.90;;;;;;4973197;28;20038;-73
2023/03/23 01:23:36;;;;;;;25.77;15.32;;;8.20;99.90;;;;;;4955201;28;20035;-76
2023/03/23 01:26:14;;;;;;;27.25;16.42;;;8.20;99.90;;;;;;4971844;28;20026;-77
2023/03/23 01:28:40;;;;;;;32.95;16.70;;;8.30;99.90;;;;;;4972111;28;20043;-77
2023/03/23 01:31:12;;;;;;;29.60;15.73;;;8.30;99.90;;;;;;4955291;28;20050;-74
2023/03/23 01:33:39;;;;;;;26.73;17.42;;;8.20;99.90;;;;;;4971539;28;20039;-76
2023/03/23 01:36:11;;;;;;;21.60;14.48;;;8.20;99.90;;;;;;4955161;28;20030;-71
2023/03/23 01:38:38;;;;;;;27.20;15.90;;;8.20;99.90;;;;;;4972394;28;20091;-76
2023/03/23 01:41:05;;;;;;;30.85;18.35;;;8.20;99.90;;;;;;4956009;28;20426;-75
2023/03/23 01:43:31;;;;;;;30.08;18.13;;;8.10;99.90;;;;;;4955599;28;20045;-73
2023/03/23 01:45:57;;;;;;;32.65;19.10;;;8.10;99.90;;;;;;4955864;28;20026;-74
2023/03/23 01:48:32;;;;;;;33.80;19.75;;;8.10;99.90;;;;;;4971653;28;20566;-74
2023/03/23 01:51:12;;;;;;;33.63;19.83;;;8.10;99.90;;;;;;4973119;28;20031;-77
2023/03/23 01:54:00;;;;;;;31.70;19.30;;;8.10;99.90;;;;;;4955647;28;20038;-78
2023/03/23 01:56:32;;;;;;;29.15;17.63;;;8.10;99.90;;;;;;4955347;28;20372;-74
2023/03/23 01:58:59;;;;;;;;;;;7.90;99.90;;;;;;4956005;28;20031;-78
2023/03/23 02:01:27;;;;;;;32.72;20.13;;;7.90;99.90;;;;;;4971812;28;19993;-75
2023/03/23 02:03:56;;;;;;;30.75;19.63;;;7.90;99.90;;;;;;4971708;28;20034;-75
2023/03/23 02:06:23;;;;;;;31.73;18.35;;;7.80;99.90;;;;;;4943218;28;20538;-75
2023/03/23 02:09:17;;;;;;;29.40;19.48;;;7.80;99.90;;;;;;4971315;28;20057;-77
2023/03/23 02:11:50;;;;;;;44.42;26.08;;;7.70;99.90;;;;;;4971610;28;20078;-75
2023/03/23 02:14:17;;;;;;;40.40;25.55;;;7.60;99.90;;;;;;4971548;28;20027;-74
2023/03/23 02:16:49;;;;;;;47.92;28.65;;;7.40;99.90;;;;;;4971412;28;20027;-76
2023/03/23 02:19:36;;;;;;;43.75;29.73;;;7.30;99.90;;;;;;4955476;28;20109;-75
2023/03/23 02:22:21;;;;;;;42.17;27.45;;;7.20;99.90;;;;;;4955090;28;20124;-78
2023/03/23 02:25:05;;;;;;;41.80;27.17;;;7.10;99.90;;;;;;4955192;28;20167;-75
2023/03/23 02:28:02;;;;;;;38.55;24.35;;;7.20;99.90;;;;;;4944036;28;20510;-77
2023/03/23 02:31:00;;;;;;;41.83;25.15;;;7.20;99.90;;;;;;4976098;28;20026;-73
2023/03/23 02:33:29;;;;;;;35.78;23.88;;;7.20;99.90;;;;;;4959421;28;20517;-75
2023/03/23 02:36:20;;;;;;;37.83;24.55;;;7.20;99.90;;;;;;4958646;28;20023;-74
2023/03/23 02:38:51;;;;;;;37.75;23.77;;;7.20;99.90;;;;;;4974581;28;20525;-76
2023/03/23 02:41:23;;;;;;;41.85;25.92;;;7.20;99.90;;;;;;4974882;28;20085;-76
2023/03/23 02:43:51;;;;;;;37.67;22.63;;;7.10;99.90;;;;;;4974863;28;20458;-75
2023/03/23 02:46:18;;;;;;;37.70;24.10;;;7.10;99.90;;;;;;4974463;28;20476;-76
2023/03/23 02:48:49;;;;;;;38.65;26.25;;;7.00;99.90;;;;;;4958781;28;20430;-74
2023/03/23 02:51:16;;;;;;;37.78;23.20;;;7.10;99.90;;;;;;4970424;28;20034;-73
2023/03/23 02:53:44;;;;;;;34.70;22.20;;;7.10;99.90;;;;;;4959495;28;20383;-77
2023/03/23 02:56:11;;;;;;;30.55;21.17;;;7.20;99.90;;;;;;4958233;28;20034;-76
2023/03/23 02:58:37;;;;;;;36.10;22.50;;;7.20;99.90;;;;;;4975787;28;20360;-76
2023/03/23 03:01:25;;;;;;;30.95;19.23;;;7.30;99.90;;;;;;4958309;28;20086;-76
2023/03/23 03:03:53;;;;;;;37.33;22.23;;;7.30;99.90;;;;;;4975665;28;20041;-77
2023/03/23 03:06:28;;;;;;;32.15;19.98;;;7.40;99.90;;;;;;4975635;28;20031;-77
2023/03/23 03:09:23;;;;;;;34.05;22.50;;;7.40;99.90;;;;;;4975494;28;20062;-74
2023/03/23 03:11:56;;;;;;;36.88;23.85;;;7.30;99.90;;;;;;4896836;29;20043;-77
2023/03/23 03:14:36;;;;;;;34.55;23.02;;;7.20;99.90;;;;;;4881538;29;20032;-77
2023/03/23 03:17:11;;;;;;;42.33;25.27;;;7.00;99.90;;;;;;4886549;29;20405;-78
2023/03/23 03:19:48;;;;;;;37.30;24.45;;;6.90;99.90;;;;;;4881219;29;20040;-77
2023/03/23 03:22:14;;;;;;;39.40;26.60;;;6.90;99.90;;;;;;4881240;29;20432;-72
2023/03/23 03:24:42;;;;;;;37.20;24.25;;;6.90;99.90;;;;;;4880966;29;20117;-79
2023/03/23 03:27:14;;;;;;;34.38;23.60;;;6.90;99.90;;;;;;4896863;29;20055;-74
2023/03/23 03:30:09;;;;;;;35.10;24.33;;;7.00;99.90;;;;;;4880762;29;20032;-77
2023/03/23 03:32:43;;;;;;;42.05;24.63;;;7.00;99.90;;;;;;4881041;29;20035;-78
2023/03/23 03:35:10;;;;;;;37.10;23.85;;;7.00;99.90;;;;;;4880941;29;20051;-77
2023/03/23 03:37:39;;;;;;;36.70;23.33;;;7.00;99.90;;;;;;4880974;29;20156;-77
2023/03/23 03:40:11;;;;;;;38.45;23.80;;;7.00;99.90;;;;;;4895925;29;20033;-77
2023/03/23 03:42:40;;;;;;;29.63;20.35;;;6.90;99.90;;;;;;4880920;29;20045;-77
2023/03/23 03:45:10;;;;;;;30.77;19.63;;;7.00;99.90;;;;;;4877775;29;20580;-77
2023/03/23 03:47:36;;;;;;;32.22;20.67;;;7.00;99.90;;;;;;4889377;29;20043;-74
2023/03/23 03:50:03;;;;;;;35.67;22.58;;;7.00;99.90;;;;;;4972812;28;20042;-77
2023/03/23 03:52:28;;;;;;;33.42;22.55;;;7.00;99.90;;;;;;4974971;28;20042;-77
2023/03/23 03:54:56;;;;;;;28.80;19.65;;;7.00;99.90;;;;;;4973600;28;20019;-74
2023/03/23 03:57:22;;;;;;;26.83;19.27;;;7.00;99.90;;;;;;4973435;28;20065;-78
2023/03/23 04:00:22;;;;;;;30.08;19.90;;;7.00;99.90;;;;;;4877438;29;20121;-77
2023/03/23 04:02:54;;;;;;;30.10;18.98;;;7.00;99.90;;;;;;4862033;29;20409;-78
2023/03/23 04:05:46;;;;;;;27.65;16.55;;;7.00;99.90;;;;;;4872991;29;20041;-77
2023/03/23 04:08:12;;;;;;;26.50;15.32;;;7.00;99.90;;;;;;4877433;29;20542;-78
2023/03/23 04:10:38;;;;;;;28.15;16.17;;;7.00;99.90;;;;;;4877506;29;20098;-76
2023/03/23 04:13:05;;;;;;;27.85;16.90;;;7.00;99.90;;;;;;4878247;29;20123;-78
2023/03/23 04:15:49;;;;;;;31.20;17.75;;;7.00;99.90;;;;;;4875538;29;20170;-77
2023/03/23 04:18:17;;;;;;;30.58;18.52;;;7.00;99.90;;;;;;4884522;29;20033;-74
2023/03/23 04:20:47;;;;;;;28.85;16.63;;;7.00;99.90;;;;;;4861447;29;20511;-77
2023/03/23 04:23:19;;;;;;;27.33;15.65;;;6.90;99.90;;;;;;4865029;29;20061;-78
2023/03/23 04:25:47;;;;;;;23.30;14.95;;;6.90;99.90;;;;;;4877094;29;20513;-77
2023/03/23 04:28:16;;;;;;;26.70;17.48;;;6.80;99.90;;;;;;4877254;29;20033;-77
2023/03/23 04:30:53;;;;;;;25.33;16.23;;;6.60;99.90;;;;;;4876936;29;20039;-78
2023/03/23 04:33:21;;;;;;;27.63;18.05;;;6.60;99.90;;;;;;4876931;29;20025;-78
2023/03/23 04:35:47;;;;;;;29.27;18.35;;;6.60;99.90;;;;;;4914214;28;20035;-77
2023/03/23 04:38:23;;;;;;;27.35;16.20;;;6.60;99.90;;;;;;4956173;28;20097;-78
2023/03/23 04:40:53;;;;;;;26.90;17.08;;;6.60;99.90;;;;;;4973047;28;20038;-81
2023/03/23 04:43:41;;;;;;;29.20;17.50;;;6.60;99.90;;;;;;4972379;28;20046;-77
2023/03/23 04:46:21;;;;;;;31.85;17.63;;;6.60;99.90;;;;;;4954625;28;20084;-76
2023/03/23 04:48:48;;;;;;;29.20;17.85;;;6.50;99.90;;;;;;4946798;28;20035;-77
2023/03/23 04:51:22;;;;;;;30.23;17.17;;;6.60;99.90;;;;;;4956369;28;20045;-77
2023/03/23 04:53:50;;;;;;;26.73;17.05;;;6.90;99.90;;;;;;4945308;29;20031;-76
2023/03/23 04:56:16;;;;;;;24.25;16.65;;;7.10;99.90;;;;;;4950097;29;20034;-77
2023/03/23 04:58:45;;;;;;;28.13;16.83;;;7.20;99.90;;;;;;4948786;28;20034;-75
2023/03/23 05:01:47;;;;;;;28.23;17.60;;;7.60;99.90;;;;;;4933509;29;20063;-76
2023/03/23 05:04:17;;;;;;;28.15;17.25;;;8.20;99.90;;;;;;4929564;29;20044;-76
2023/03/23 05:06:52;;;;;;;26.25;17.45;;;8.60;99.90;;;;;;4936913;29;20440;-78
2023/03/23 05:09:23;;;;;;;33.55;18.13;;;9.00;99.90;;;;;;4934456;29;20432;-76
2023/03/23 05:11:49;;;;;;;31.80;18.52;;;9.60;99.90;;;;;;4935557;29;20027;-75
2023/03/23 05:14:16;;;;;;;32.28;20.08;;;9.90;99.90;;;;;;4935176;29;20054;-78
2023/03/23 05:16:48;;;;;;;32.15;21.77;;;10.20;99.90;;;;;;4934419;29;20419;-78
2023/03/23 05:19:18;;;;;;;42.42;25.98;;;10.60;99.90;;;;;;4935737;29;20411;-78
2023/03/23 05:21:45;;;;;;;45.65;24.30;;;10.40;99.90;;;;;;4951562;29;20438;-77
2023/03/23 05:24:11;;;;;;;44.33;26.02;;;10.10;99.90;;;;;;4935473;29;20057;-77
2023/03/23 05:26:38;;;;;;;43.33;28.42;;;9.40;99.90;;;;;;4952016;29;20412;-77
2023/03/23 05:29:12;;;;;;;42.15;22.48;;;9.30;99.90;;;;;;4935847;29;20142;-78
2023/03/23 05:31:55;;;;;;;43.90;22.27;;;9.50;99.90;;;;;;4936178;29;20050;-77
2023/03/23 05:34:23;;;;;;;37.63;23.35;;;9.60;99.90;;;;;;4935777;29;20451;-74
2023/03/23 05:36:57;;;;;;;41.97;23.80;;;9.60;99.90;;;;;;4945362;28;20046;-81
2023/03/23 05:39:47;;;;;;;35.78;21.30;;;9.90;99.90;;;;;;4913105;29;20136;-82
2023/03/23 05:42:35;;;;;;;42.70;22.60;;;10.60;99.90;;;;;;4913410;29;20048;-81
2023/03/23 05:45:11;;;;;;;33.03;20.77;;;11.40;99.90;;;;;;4897846;29;20531;-77
2023/03/23 05:47:39;;;;;;;33.67;22.13;;;11.70;99.90;;;;;;4898500;29;20087;-80
2023/03/23 05:50:10;;;;;;;34.80;21.38;;;12.20;99.90;;;;;;4913709;29;20032;-81
2023/03/23 05:52:38;;;;;;;33.50;20.38;;;12.60;99.90;;;;;;4897918;29;20032;-80
2023/03/23 05:55:08;;;;;;;32.00;22.27;;;12.10;99.90;;;;;;4898699;29;20075;-83
2023/03/23 05:57:36;;;;;;;38.08;25.90;;;11.50;99.90;;;;;;4915339;29;20107;-83
2023/03/23 06:00:28;;;;;;;32.47;22.52;;;11.10;99.90;;;;;;4856851;29;20033;-82
2023/03/23 06:03:03;;;;;;;42.42;27.23;;;10.90;99.90;;;;;;4859040;29;20053;-72
2023/03/23 06:05:44;;;;;;;38.25;18.25;;;10.40;99.90;;;;;;4844653;29;20037;-81
2023/03/23 06:08:12;;;;;;;27.83;17.52;;;10.00;99.90;;;;;;4845442;29;20089;-83
2023/03/23 06:10:38;;;;;;;41.22;20.13;;;10.20;99.90;;;;;;4871565;29;20037;-83
2023/03/23 06:13:07;;;;;;;33.22;17.10;;;9.80;99.90;;;;;;4863344;29;20080;-82
2023/03/23 06:15:44;;;;;;;25.92;16.00;;;10.20;99.90;;;;;;4837260;29;20052;-74
2023/03/23 06:18:33;;;;;;;30.08;18.00;;;10.00;99.90;;;;;;4897953;29;20045;-83
2023/03/23 06:21:21;;;;;;;32.35;22.65;;;10.40;99.90;;;;;;4897709;29;20131;-72
2023/03/23 06:24:10;;;;;;;28.52;14.90;;;10.40;99.90;;;;;;4864501;29;20033;-81
2023/03/23 06:26:38;;;;;;;24.85;15.98;;;10.00;99.90;;;;;;4866389;29;20064;-82
2023/03/23 06:29:11;;;;;;;26.13;16.30;;;10.00;99.90;;;;;;4865907;29;20541;-77
2023/03/23 06:31:47;;;;;;;26.25;17.38;;;10.00;99.90;;;;;;4860962;29;20126;-80
2023/03/23 06:34:14;;;;;;;32.05;17.42;;;10.40;99.90;;;;;;4873105;29;20050;-80
2023/03/23 06:37:06;;;;;;;24.75;14.85;;;10.70;99.90;;;;;;4904667;29;20373;-75
2023/03/23 06:39:42;;;;;;;28.33;16.45;;;10.70;99.90;;;;;;4941225;29;20099;-80
2023/03/23 06:42:18;;;;;;;23.38;15.23;;;11.10;99.90;;;;;;4938649;29;20595;-80
2023/03/23 06:44:51;;;;;;;24.60;14.77;;;11.30;99.90;;;;;;4954270;29;20062;-79
2023/03/23 06:47:17;;;;;;;26.38;15.73;;;11.50;99.90;;;;;;4928009;29;20035;-77
2023/03/23 06:49:47;;;;;;;28.42;14.38;;;11.70;99.90;;;;;;4951981;29;20418;-78
2023/03/23 06:52:26;;;;;;;24.65;16.08;;;11.90;99.90;;;;;;4938388;29;20125;-75
2023/03/23 06:54:53;;;;;;;23.42;14.82;;;11.90;99.90;;;;;;4935985;29;20035;-72
2023/03/23 06:57:20;;;;;;;27.50;15.40;;;11.90;99.90;;;;;;4917854;29;20518;-79
2023/03/23 06:59:47;;;;;;;25.45;15.40;;;12.00;99.90;;;;;;4919242;29;20028;-79
2023/03/23 07:02:14;;;;;;;27.70;16.70;;;12.10;99.90;;;;;;4957148;28;20034;-77
2023/03/23 07:04:42;;;;;;;30.35;16.15;;;12.40;99.90;;;;;;4974183;28;20049;-71
2023/03/23 07:07:21;;;;;;;27.90;17.00;;;12.70;99.90;;;;;;4958603;28;20062;-80
2023/03/23 07:10:08;;;;;;;27.08;15.07;;;12.90;99.90;;;;;;4965722;28;20053;-78
2023/03/23 07:12:35;;;;;;;25.48;15.93;;;12.90;99.90;;;;;;4958199;28;20026;-79
2023/03/23 07:15:05;;;;;;;25.30;15.95;;;12.90;99.90;;;;;;4974983;28;20054;-79
2023/03/23 07:17:31;;;;;;;25.42;17.05;;;13.10;99.90;;;;;;4958123;28;20110;-79
2023/03/23 07:20:20;;;;;;;25.75;15.30;;;13.10;99.90;;;;;;4973443;28;20070;-79
2023/03/23 07:22:46;;;;;;;24.77;15.98;;;13.00;99.90;;;;;;4957144;28;20043;-76
2023/03/23 07:25:22;;;;;;;25.90;14.65;;;12.90;99.90;;;;;;4957787;28;20033;-78
2023/03/23 07:27:51;;;;;;;19.88;13.10;;;13.00;99.90;;;;;;4958232;28;20090;-78
2023/03/23 07:30:17;;;;;;;21.95;13.65;;;12.90;99.90;;;;;;4957625;28;20026;-79
2023/03/23 07:32:43;;;;;;;22.63;13.13;;;13.30;99.90;;;;;;4957878;28;20035;-78
2023/03/23 07:35:09;;;;;;;25.13;14.30;;;13.40;99.90;;;;;;4957507;28;20364;-79
2023/03/23 07:38:02;;;;;;;20.00;13.80;;;13.70;99.90;;;;;;4971190;28;20054;-71
2023/03/23 07:40:32;;;;;;;25.08;14.00;;;13.80;99.90;;;;;;4955380;28;20039;-79
2023/03/23 07:43:02;;;;;;;23.77;14.43;;;14.00;99.90;;;;;;4951129;28;20097;-79
2023/03/23 07:45:47;;;;;;;22.85;12.55;;;14.30;99.90;;;;;;4966099;28;20513;-78
2023/03/23 07:48:15;;;;;;;20.60;12.85;;;14.40;99.90;;;;;;4957457;28;20027;-79
2023/03/23 07:50:41;;;;;;;24.52;13.73;;;14.60;99.90;;;;;;4957383;28;20121;-79
2023/03/23 07:53:10;;;;;;;21.40;12.38;;;14.70;98.40;;;;;;4974225;28;20058;-75
2023/03/23 07:55:37;;;;;;;20.95;12.98;;;14.70;98.40;;;;;;4957470;28;20023;-73
2023/03/23 07:58:19;;;;;;;19.80;12.88;;;14.90;98.40;;;;;;4973575;28;20023;-80
2023/03/23 08:00:48;;;;;;;22.90;14.02;;;15.10;97.90;;;;;;4956267;28;20424;-79
2023/03/23 08:03:18;;;;;;;19.90;12.77;;;15.30;97.20;;;;;;4974532;28;20034;-79
2023/03/23 08:05:58;;;;;;;20.33;13.30;;;15.40;97.60;;;;;;4957607;28;20049;-78
2023/03/23 08:08:43;;;;;;;22.23;12.82;;;15.30;96.80;;;;;;4960607;28;20097;-78
2023/03/23 08:11:29;;;;;;;23.17;11.55;;;15.40;97.10;;;;;;4974595;28;20031;-79
2023/03/23 08:14:21;;;;;;;22.07;11.87;;;15.50;97.70;;;;;;4938198;28;20364;-78
2023/03/23 08:17:26;;;;;;;23.05;11.88;;;15.60;96.80;;;;;;4896116;29;20124;-77
2023/03/23 08:20:16;;;;;;;21.48;11.40;;;16.00;99.00;;;;;;4880115;29;20505;-78
2023/03/23 08:23:02;;;;;;;18.52;12.25;;;16.00;95.60;;;;;;4896222;29;20079;-77
2023/03/23 08:25:30;;;;;;;21.63;12.30;;;16.30;96.30;;;;;;4895070;29;20524;-77
2023/03/23 08:28:14;;;;;;;16.85;9.77;;;16.50;94.50;;;;;;4880001;29;20040;-78
2023/03/23 08:30:59;;;;;;;20.38;9.85;;;16.50;93.00;;;;;;4882825;29;20059;-77
2023/03/23 08:33:39;;;;;;;17.85;10.57;;;16.90;93.80;;;;;;4880405;29;20056;-77
2023/03/23 08:36:24;;;;;;;20.70;10.95;;;17.10;93.20;;;;;;4895383;29;20051;-74
2023/03/23 08:39:14;;;;;;;16.23;9.73;;;17.30;92.30;;;;;;4879832;29;20044;-73
2023/03/23 08:42:15;;;;;;;19.95;10.75;;;17.20;91.20;;;;;;4858169;29;20066;-77
2023/03/23 08:45:00;;;;;;;15.05;9.88;;;17.30;91.00;;;;;;4858554;29;20118;-77
2023/03/23 08:47:56;;;;;;;15.23;9.10;;;17.20;91.20;;;;;;4857096;29;20101;-77
2023/03/23 08:50:40;;;;;;;15.20;7.90;;;17.40;91.90;;;;;;4895530;29;20040;-76
2023/03/23 08:53:31;;;;;;;13.57;7.80;;;17.40;90.60;;;;;;4857498;29;20166;-76
2023/03/23 08:56:17;;;;;;;15.98;8.02;;;17.50;90.90;;;;;;4853784;29;20501;-76
2023/03/23 08:59:03;;;;;;;13.40;7.78;;;17.50;91.10;;;;;;4858057;29;20470;-74
2023/03/23 09:01:37;;;;;;;15.75;8.98;;;17.60;90.40;;;;;;4873253;29;20029;-77
2023/03/23 09:04:16;;;;;;;12.55;7.05;;;17.30;90.00;;;;;;4857576;29;20512;-76
2023/03/23 09:07:14;;;;;;;16.10;7.95;;;17.20;88.90;;;;;;4857888;29;20057;-76
2023/03/23 09:09:41;;;;;;;12.77;7.68;;;17.60;90.00;;;;;;4857939;29;20049;-75
2023/03/23 09:12:08;;;;;;;18.63;7.18;;;17.80;87.40;;;;;;4858092;29;20114;-72
2023/03/23 09:14:35;;;;;;;12.73;7.05;;;17.90;89.90;;;;;;4858115;29;20041;-77
2023/03/23 09:17:02;;;;;;;11.60;6.72;;;17.70;89.10;;;;;;4857629;29;20029;-73
2023/03/23 09:19:29;;;;;;;11.90;7.45;;;18.10;89.30;;;;;;4858032;29;20041;-76
2023/03/23 09:21:55;;;;;;;15.60;7.22;;;18.40;89.90;;;;;;4857639;29;20030;-77
2023/03/23 09:24:21;;;;;;;12.52;6.50;;;18.50;90.10;;;;;;4876722;29;20059;-76
2023/03/23 09:26:47;;;;;;;12.15;6.80;;;18.60;90.20;;;;;;4894598;29;20033;-76
2023/03/23 09:29:14;;;;;;;13.35;8.38;;;18.60;88.60;;;;;;4895148;29;20029;-74
2023/03/23 09:31:41;;;;;;;17.27;6.20;;;18.60;86.90;;;;;;4954157;28;20387;-71
2023/03/23 09:34:09;;;;;;;11.32;6.18;;;18.50;85.20;;;;;;4973372;28;20019;-77
2023/03/23 09:36:36;;;;;;;10.32;6.13;;;18.80;87.30;;;;;;4973515;28;20029;-77
2023/03/23 09:39:07;;;;;;;18.83;6.20;;;18.90;83.20;;;;;;4971590;28;20060;-77
2023/03/23 09:41:58;;;;;;;16.77;6.60;;;18.90;84.00;;;;;;4973257;28;20018;-76
2023/03/23 09:44:36;;;;;;;10.90;5.22;;;19.00;86.80;;;;;;4973294;28;20034;-73
2023/03/23 09:47:15;;;;;;;9.00;5.35;;;18.80;82.10;;;;;;4973152;28;20029;-77
2023/03/23 09:49:48;;;;;;;9.95;6.03;;;18.70;80.00;;;;;;4973254;28;20039;-72
2023/03/23 09:52:17;;;;;;;7.15;4.72;;;18.90;81.20;;;;;;4973089;28;20466;-73
2023/03/23 09:54:50;;;;;;;6.95;4.03;;;19.30;79.40;;;;;;4972935;28;20033;-77
2023/03/23 09:57:38;;;;;;;9.82;4.68;;;19.40;77.70;;;;;;4973325;28;20116;-75
2023/03/23 10:00:42;;;;;;;7.75;4.15;;;19.20;78.60;;;;;;4973181;28;20461;-74
2023/03/23 10:03:18;;;;;;;9.23;4.47;;;19.30;78.50;;;;;;4913609;29;20055;-76
2023/03/23 10:05:47;;;;;;;12.52;5.90;;;19.10;76.50;;;;;;4913378;29;20068;-77
2023/03/23 10:08:19;;;;;;;9.85;4.55;;;19.50;79.60;;;;;;4913654;29;20028;-73
2023/03/23 10:10:50;;;;;;;;;;;19.50;77.90;;;;;;4913486;29;20032;-77
2023/03/23 10:13:45;;;;;;;6.20;3.25;;;19.40;74.10;;;;;;4913380;29;20005;-77
2023/03/23 10:16:17;;;;;;;4.95;3.13;;;19.70;75.20;;;;;;4907074;29;20075;-71
2023/03/23 10:18:51;;;;;;;5.57;2.60;;;19.50;74.50;;;;;;4913304;29;20040;-71
2023/03/23 10:21:21;;;;;;;5.00;2.42;;;19.60;74.70;;;;;;4913323;29;20525;-78
2023/03/23 10:24:01;;;;;;;6.70;3.70;;;19.60;74.70;;;;;;4913423;29;20040;-74
2023/03/23 10:26:34;;;;;;;5.85;3.50;;;19.70;75.70;;;;;;4913449;29;20444;-79
2023/03/23 10:29:27;;;;;;;6.63;3.97;;;19.80;75.90;;;;;;4913519;29;20144;-77
2023/03/23 10:32:12;;;;;;;6.57;3.63;;;19.90;75.80;;;;;;4913279;29;20040;-76
2023/03/23 10:34:54;;;;;;;6.38;3.42;;;20.10;74.90;;;;;;4913157;29;20028;-77
2023/03/23 10:37:36;;;;;;;6.07;3.55;;;19.90;71.70;;;;;;4912900;29;20478;-76
2023/03/23 10:40:09;;;;;;;6.72;2.80;;;20.10;73.70;;;;;;4953431;29;20039;-76
2023/03/23 10:42:38;;;;;;;4.80;2.70;;;20.10;72.10;;;;;;4968283;28;20055;-78
2023/03/23 10:45:19;;;;;;;4.65;2.95;;;20.10;72.70;;;;;;4953114;29;20038;-72
2023/03/23 10:47:56;;;;;;;8.98;3.78;;;19.90;72.40;;;;;;4953048;28;20035;-77
2023/03/23 10:50:27;;;;;;;5.00;3.42;;;20.00;73.60;;;;;;4962079;28;20023;-77
2023/03/23 10:52:57;;;;;;;9.15;3.55;;;20.00;73.50;;;;;;4963267;28;20487;-76
2023/03/23 10:55:34;;;;;;;8.43;2.83;;;20.00;73.90;;;;;;4956557;29;20034;-77
2023/03/23 10:58:02;;;;;;;3.92;2.30;;;20.00;72.70;;;;;;4956245;29;20023;-72
2023/03/23 11:00:30;;;;;;;4.80;2.30;;;20.20;73.70;;;;;;4956167;28;20020;-75
2023/03/23 11:03:02;;;;;;;7.43;3.10;;;20.10;73.80;;;;;;4948086;29;20542;-77
2023/03/23 11:05:43;;;;;;;4.45;2.90;;;20.20;73.50;;;;;;4952062;29;20031;-76
2023/03/23 11:08:19;;;;;;;7.35;2.95;;;20.30;73.90;;;;;;4955298;29;20047;-77
2023/03/23 11:10:58;;;;;;;6.10;2.33;;;20.40;72.60;;;;;;4943491;29;20059;-78
2023/03/23 11:13:30;;;;;;;4.13;2.80;;;20.40;70.50;;;;;;4954096;29;20023;-77
2023/03/23 11:15:56;;;;;;;6.43;2.92;;;20.30;71.40;;;;;;4954620;29;20463;-78
2023/03/23 11:18:26;;;;;;;7.90;3.25;;;20.20;70.80;;;;;;4953807;29;20030;-77
2023/03/23 11:20:56;;;;;;;6.72;3.42;;;19.90;70.10;;;;;;4954262;29;20039;-78
2023/03/23 11:23:31;;;;;;;7.70;3.15;;;19.70;70.80;;;;;;4954049;29;20069;-77
2023/03/23 11:25:57;;;;;;;5.57;3.00;;;19.70;70.90;;;;;;4949206;29;20394;-78
2023/03/23 11:28:32;;;;;;;6.25;2.67;;;19.80;71.30;;;;;;4944358;29;20149;-79
2023/03/23 11:31:01;;;;;;;8.27;3.45;;;19.80;72.30;;;;;;4951153;29;20034;-79
2023/03/23 11:33:57;;;;;;;4.57;2.97;;;19.90;69.20;;;;;;4941627;29;20035;-78
2023/03/23 11:36:48;;;;;;;7.45;3.42;;;20.00;71.60;;;;;;4950201;28;20063;-71
2023/03/23 11:39:29;;;;;;;3.97;3.20;;;20.00;72.40;;;;;;4960830;28;20078;-73
2023/03/23 11:41:58;;;;;;;5.82;3.17;;;20.10;71.50;;;;;;4974635;28;20031;-77
2023/03/23 11:44:31;;;;;;;7.00;3.63;;;20.10;71.00;;;;;;4974809;28;20138;-75
2023/03/23 11:47:03;;;;;;;3.92;2.65;;;20.00;69.90;;;;;;4974752;28;20049;-71
2023/03/23 11:49:42;;;;;;;5.57;3.55;;;20.10;70.70;;;;;;4974389;28;20062;-72
2023/03/23 11:52:34;;;;;;;4.13;2.67;;;20.20;69.40;;;;;;4973736;28;20201;-71
2023/03/23 11:55:08;;;;;;;6.40;3.05;;;20.20;70.50;;;;;;4961080;28;20035;-72
2023/03/23 11:57:34;;;;;;;6.38;3.08;;;20.20;73.60;;;;;;4974381;28;20039;-76
2023/03/23 12:00:04;;;;;;;5.55;3.15;;;20.20;71.50;;;;;;4973963;28;20364;-75
2023/03/23 12:02:57;;;;;;;6.20;2.83;;;20.10;70.60;;;;;;4971745;28;20030;-76
2023/03/23 12:05:55;;;;;;;6.03;3.25;;;20.20;70.70;;;;;;4973484;28;20405;-72
2023/03/23 12:08:22;;;;;;;6.97;3.45;;;20.20;72.10;;;;;;4965406;28;20038;-71
2023/03/23 12:10:59;;;;;;;4.25;2.88;;;20.30;72.60;;;;;;4968339;28;20029;-75
2023/03/23 12:13:52;;;;;;;4.85;2.90;;;20.40;71.40;;;;;;4972293;28;20402;-76
2023/03/23 12:16:31;;;;;;;9.75;3.47;;;20.50;72.20;;;;;;4968645;28;20109;-76
2023/03/23 12:19:10;;;;;;;5.43;2.85;;;20.60;72.90;;;;;;4968985;28;20054;-72
2023/03/23 12:22:03;;;;;;;7.07;3.30;;;20.40;68.00;;;;;;4971192;28;20093;-75
2023/03/23 12:25:06;;;;;;;7.57;3.15;;;20.40;70.90;;;;;;4972395;28;20511;-77
2023/03/23 12:27:31;;;;;;;;;;;20.30;68.50;;;;;;4964009;28;20486;-77
2023/03/23 12:30:06;;;;;;;9.60;3.42;;;20.30;70.20;;;;;;4973772;28;19917;-75
2023/03/23 12:32:56;;;;;;;6.30;3.40;;;20.10;68.00;;;;;;4973508;28;20046;-76
2023/03/23 12:35:36;;;;;;;3.92;2.70;;;19.90;67.60;;;;;;4965784;28;20019;-76
2023/03/23 12:38:15;;;;;;;5.38;3.10;;;20.00;68.60;;;;;;4966438;28;20376;-72
2023/03/23 12:40:49;;;;;;;6.70;2.80;;;20.10;68.50;;;;;;4968839;28;20035;-76
2023/03/23 12:43:31;;;;;;;3.67;2.58;;;20.30;70.30;;;;;;4972177;28;20039;-76
2023/03/23 12:46:31;;;;;;;7.67;3.27;;;20.20;68.70;;;;;;4965007;28;20082;-76
2023/03/23 12:49:26;;;;;;;4.13;2.55;;;20.20;70.00;;;;;;4964051;28;20022;-76
2023/03/23 12:52:11;;;;;;;5.47;2.58;;;20.20;68.70;;;;;;4962123;28;20379;-74
2023/03/23 12:55:19;;;;;;;3.90;2.80;;;20.10;67.20;;;;;;4966402;28;20027;-73
2023/03/23 12:57:54;;;;;;;4.30;2.65;;;20.30;68.70;;;;;;4913210;29;20051;-76
2023/03/23 13:00:39;;;;;;;7.97;2.80;;;20.30;68.70;;;;;;4913111;29;20040;-76
2023/03/23 13:03:05;;;;;;;3.85;2.65;;;20.20;69.10;;;;;;4910886;29;20032;-72
2023/03/23 13:06:00;;;;;;;8.05;3.15;;;20.30;70.70;;;;;;4912910;29;20028;-78
2023/03/23 13:08:36;;;;;;;9.18;3.58;;;20.40;71.40;;;;;;4909041;29;20084;-76
2023/03/23 13:11:11;;;;;;;9.70;3.35;;;20.30;67.00;;;;;;4906291;29;20036;-76
2023/03/23 13:13:52;;;;;;;5.05;3.13;;;20.40;68.80;;;;;;4909525;29;20054;-73
2023/03/23 13:16:48;;;;;;;6.85;3.22;;;20.50;69.80;;;;;;4913545;29;20931;-76
2023/03/23 13:19:22;;;;;;;7.13;2.72;;;20.50;69.00;;;;;;4906010;29;20043;-75